Time;durP1;ratioP1;P1;durP2;ratioP2;P2;SDS_P1;SDS_P2;PMS_P1;PMS_P2;Temp;Humidity;BMP_temperature;BMP_pressure;BME280_temperature;BME280_humidity;BME280_pressure;Samples;Min_cycle;Max_cycle;Signal;HPM_P1;HPM_P2
2021/09/18 00:01:35;;;;;;;13.32;4.78;;;;;;;16.65;100.00;94683.75;5067119;28;21793;-71
2021/09/18 00:04:05;;;;;;;6.47;4.53;;;;;;;16.73;100.00;94683.19;5069748;28;20049;-71
2021/09/18 00:06:33;;;;;;;11.23;5.57;;;;;;;16.73;100.00;94678.72;5077132;28;20097;-71
2021/09/18 00:09:00;;;;;;;10.45;3.65;;;;;;;16.81;100.00;94679.97;5084155;28;20045;-71
2021/09/18 00:11:27;;;;;;;7.95;4.38;;;;;;;16.84;100.00;94678.69;5068937;28;20044;-71
2021/09/18 00:13:54;;;;;;;13.68;4.90;;;;;;;16.90;100.00;94672.31;5068957;28;20040;-72
2021/09/18 00:16:21;;;;;;;8.10;3.65;;;;;;;16.84;100.00;94674.22;5069288;28;20076;-71
2021/09/18 00:18:48;;;;;;;9.05;4.38;;;;;;;16.95;100.00;94699.38;5085098;28;20467;-72
2021/09/18 00:21:15;;;;;;;13.50;4.72;;;;;;;17.00;100.00;94699.34;5087298;28;20044;-72
2021/09/18 00:23:42;;;;;;;16.45;4.00;;;;;;;17.04;100.00;94688.28;5075478;28;20065;-71
2021/09/18 00:26:08;;;;;;;7.97;4.00;;;;;;;17.04;100.00;94688.28;5066124;28;20044;-72
2021/09/18 00:28:36;;;;;;;11.50;5.15;;;;;;;17.09;100.00;94696.13;5076685;28;20929;-72
2021/09/18 00:31:03;;;;;;;11.45;4.72;;;;;;;17.09;100.00;94670.59;5087168;28;20063;-71
2021/09/18 00:33:30;;;;;;;9.45;4.90;;;;;;;16.71;100.00;94670.31;5077912;28;20044;-71
2021/09/18 00:35:57;;;;;;;14.48;5.55;;;;;;;16.53;100.00;94668.31;5070174;28;20039;-71
2021/09/18 00:38:24;;;;;;;11.57;5.68;;;;;;;16.49;100.00;94662.81;5081632;28;20391;-72
2021/09/18 00:40:51;;;;;;;12.55;5.82;;;;;;;16.61;100.00;94676.41;5067225;28;20082;-71
2021/09/18 00:43:18;;;;;;;9.80;4.78;;;;;;;16.73;100.00;94677.94;5068667;28;20036;-71
2021/09/18 00:45:44;;;;;;;11.40;4.75;;;;;;;16.76;100.00;94678.19;5072951;28;20516;-72
2021/09/18 00:48:11;;;;;;;7.22;4.90;;;;;;;16.83;100.00;94677.88;5068871;28;20476;-72
2021/09/18 00:50:38;;;;;;;12.45;5.22;;;;;;;16.96;100.00;94682.53;5085372;28;20035;-71
2021/09/18 00:53:05;;;;;;;11.07;4.55;;;;;;;16.96;100.00;94664.13;5086822;28;20075;-72
2021/09/18 00:55:32;;;;;;;8.48;4.82;;;;;;;17.09;100.00;94659.31;5080034;28;20044;-72
2021/09/18 00:57:59;;;;;;;12.73;5.85;;;;;;;17.13;100.00;94655.06;5085423;28;20039;-72
2021/09/18 01:00:30;;;;;;;9.27;4.88;;;;;;;17.19;100.00;94653.94;5084235;28;20051;-72
2021/09/18 01:02:57;;;;;;;14.65;4.93;;;;;;;17.20;100.00;94660.78;5086601;28;20109;-71
2021/09/18 01:05:25;;;;;;;9.80;4.50;;;;;;;17.23;100.00;94673.38;5073176;28;20032;-72
2021/09/18 01:07:55;;;;;;;12.52;5.78;;;;;;;17.27;100.00;94687.56;5066737;28;20043;-72
2021/09/18 01:10:23;;;;;;;17.70;5.70;;;;;;;17.29;100.00;94695.19;5071015;28;20517;-72
2021/09/18 01:13:12;;;;;;;9.15;5.07;;;;;;;17.30;100.00;94710.69;5070686;28;20513;-71
2021/09/18 01:15:39;;;;;;;9.20;5.00;;;;;;;17.29;100.00;94727.56;5074930;28;20046;-71
2021/09/18 01:18:07;;;;;;;10.52;5.13;;;;;;;17.35;100.00;94747.50;5070934;28;20051;-71
2021/09/18 01:20:36;;;;;;;13.90;4.70;;;;;;;17.24;100.00;94764.44;5066199;28;20070;-71
2021/09/18 01:23:05;;;;;;;10.13;4.82;;;;;;;16.85;100.00;94759.94;5072617;28;20051;-71
2021/09/18 01:25:36;;;;;;;12.85;4.88;;;;;;;16.81;100.00;94779.91;5074439;28;20060;-71
2021/09/18 01:28:05;;;;;;;7.55;4.72;;;;;;;16.67;100.00;94768.41;5072228;28;20041;-70
2021/09/18 01:30:34;;;;;;;7.65;4.10;;;;;;;16.51;100.00;94755.34;5067499;28;20051;-70
2021/09/18 01:33:03;;;;;;;14.30;4.85;;;;;;;16.47;100.00;94730.63;5076167;28;20040;-71
2021/09/18 01:35:31;;;;;;;9.05;4.70;;;;;;;16.59;100.00;94741.63;5072956;28;20119;-70
2021/09/18 01:37:58;;;;;;;7.97;4.80;;;;;;;16.56;100.00;94723.75;5078963;28;20375;-69
2021/09/18 01:40:28;;;;;;;11.07;4.00;;;;;;;16.71;100.00;94737.88;5074582;28;20456;-69
2021/09/18 01:42:56;;;;;;;10.70;4.20;;;;;;;16.84;100.00;94736.56;5078097;28;20048;-70
2021/09/18 01:45:24;;;;;;;10.50;5.45;;;;;;;16.68;100.00;94733.19;5074955;28;20125;-70
2021/09/18 01:47:57;;;;;;;12.35;5.88;;;;;;;16.54;100.00;94723.25;5083339;28;20040;-71
2021/09/18 01:50:32;;;;;;;12.07;5.05;;;;;;;16.68;100.00;94723.44;5075670;28;20150;-70
2021/09/18 01:53:06;;;;;;;17.92;5.90;;;;;;;16.66;100.00;94724.78;5072557;28;20178;-71
2021/09/18 01:55:35;;;;;;;8.88;6.15;;;;;;;16.65;100.00;94717.94;5073882;28;20044;-71
2021/09/18 01:58:03;;;;;;;22.88;5.75;;;;;;;16.63;100.00;94695.31;5074621;28;20048;-70
2021/09/18 02:00:30;;;;;;;8.48;5.10;;;;;;;16.72;100.00;94707.91;5073591;28;20058;-70
2021/09/18 02:02:59;;;;;;;15.32;6.28;;;;;;;16.61;100.00;94702.69;5080557;28;20505;-70
2021/09/18 02:05:27;;;;;;;8.55;5.07;;;;;;;16.63;100.00;94705.84;5072154;28;20747;-70
2021/09/18 02:07:55;;;;;;;11.77;5.57;;;;;;;16.71;100.00;94706.34;5074571;28;20037;-70
2021/09/18 02:10:27;;;;;;;10.57;5.80;;;;;;;16.73;100.00;94704.25;5070926;28;20123;-70
2021/09/18 02:12:56;;;;;;;10.38;4.25;;;;;;;16.81;100.00;94708.91;5074486;28;20110;-70
2021/09/18 02:15:24;;;;;;;10.50;5.00;;;;;;;16.84;100.00;94700.50;5079949;28;20050;-71
2021/09/18 02:17:51;;;;;;;11.90;4.65;;;;;;;16.85;100.00;94675.75;5077062;28;20036;-71
2021/09/18 02:20:22;;;;;;;16.73;7.07;;;;;;;16.95;100.00;94691.47;5076151;28;20455;-71
2021/09/18 02:22:49;;;;;;;10.43;6.13;;;;;;;17.02;100.00;94690.41;5072885;28;20039;-71
2021/09/18 02:25:16;;;;;;;9.40;4.72;;;;;;;16.97;100.00;94673.56;5077937;28;20045;-71
2021/09/18 02:27:44;;;;;;;10.68;5.25;;;;;;;17.06;100.00;94680.91;5068133;28;20040;-71
2021/09/18 02:30:14;;;;;;;6.68;4.47;;;;;;;17.17;100.00;94692.91;5069717;28;20051;-70
2021/09/18 02:32:41;;;;;;;9.00;5.32;;;;;;;16.70;100.00;94681.09;5067356;28;20052;-70
2021/09/18 02:35:11;;;;;;;10.45;4.18;;;;;;;16.43;100.00;94679.69;5076905;28;20047;-70
2021/09/18 02:37:39;;;;;;;10.63;4.75;;;;;;;16.38;100.00;94677.06;5070940;28;20413;-70
2021/09/18 02:40:08;;;;;;;10.40;5.28;;;;;;;16.56;100.00;94684.31;5077563;28;20055;-71
2021/09/18 02:42:37;;;;;;;9.55;4.60;;;;;;;16.68;100.00;94670.09;5076754;28;20048;-70
2021/09/18 02:45:06;;;;;;;11.57;4.90;;;;;;;16.47;100.00;94654.41;5076976;28;20509;-70
2021/09/18 02:47:33;;;;;;;11.23;5.82;;;;;;;16.43;100.00;94664.69;5073634;28;20039;-69
2021/09/18 02:50:01;;;;;;;13.20;5.88;;;;;;;16.53;100.00;94658.59;5082580;28;20059;-70
2021/09/18 02:52:27;;;;;;;7.32;4.22;;;;;;;16.71;100.00;94669.50;5075550;28;20119;-70
2021/09/18 02:54:54;;;;;;;8.35;5.35;;;;;;;16.72;100.00;94671.09;5076168;28;20049;-70
2021/09/18 02:57:21;;;;;;;8.73;5.15;;;;;;;16.82;100.00;94671.03;5078243;28;20094;-70
2021/09/18 02:59:48;;;;;;;17.13;6.65;;;;;;;16.78;100.00;94649.75;5077021;28;20089;-71
2021/09/18 03:02:15;;;;;;;10.73;4.75;;;;;;;16.60;100.00;94645.94;5076758;28;20036;-72
2021/09/18 03:04:42;;;;;;;10.35;4.70;;;;;;;16.37;100.00;94646.59;5080478;28;20040;-72
2021/09/18 03:07:09;;;;;;;10.00;5.20;;;;;;;16.47;100.00;94649.16;5074279;28;20054;-71
2021/09/18 03:09:36;;;;;;;7.72;5.68;;;;;;;16.56;100.00;94634.38;5075698;28;20520;-72
2021/09/18 03:12:03;;;;;;;15.52;6.10;;;;;;;16.57;100.00;94622.81;5072348;28;20053;-71
2021/09/18 03:14:30;;;;;;;11.40;6.50;;;;;;;16.62;100.00;94630.66;5077436;28;20460;-72
2021/09/18 03:16:57;;;;;;;12.38;5.35;;;;;;;16.57;100.00;94628.06;5071075;28;20067;-71
2021/09/18 03:19:24;;;;;;;13.63;5.32;;;;;;;16.38;100.00;94629.75;5076204;28;20032;-71
2021/09/18 03:21:51;;;;;;;9.23;5.22;;;;;;;16.06;100.00;94623.09;5067120;28;20044;-71
2021/09/18 03:24:18;;;;;;;10.48;5.43;;;;;;;16.13;100.00;94620.16;5082250;28;20048;-71
2021/09/18 03:26:45;;;;;;;18.77;5.63;;;;;;;16.29;100.00;94632.16;5074093;28;20063;-71
2021/09/18 03:29:12;;;;;;;8.63;5.15;;;;;;;16.37;100.00;94622.94;5074652;28;20103;-71
2021/09/18 03:31:40;;;;;;;9.85;4.72;;;;;;;16.28;100.00;94625.34;5079409;28;20036;-71
2021/09/18 03:34:07;;;;;;;8.18;5.35;;;;;;;16.23;100.00;94622.75;5073488;28;20076;-71
2021/09/18 03:36:35;;;;;;;17.40;6.47;;;;;;;16.37;100.00;94618.47;5082168;28;20040;-71
2021/09/18 03:39:02;;;;;;;9.48;5.35;;;;;;;16.27;100.00;94618.53;5076097;28;20040;-71
2021/09/18 03:41:29;;;;;;;15.32;6.43;;;;;;;16.31;100.00;94622.16;5075794;28;20498;-71
2021/09/18 03:43:56;;;;;;;13.40;6.78;;;;;;;16.16;100.00;94619.63;5075061;28;20062;-68
2021/09/18 03:46:23;;;;;;;16.05;6.53;;;;;;;16.03;100.00;94607.88;5073063;28;20044;-70
2021/09/18 03:48:49;;;;;;;12.95;6.60;;;;;;;16.07;100.00;94624.66;5075586;28;20043;-69
2021/09/18 03:51:16;;;;;;;12.93;5.90;;;;;;;16.09;100.00;94617.31;5075434;28;20055;-69
2021/09/18 03:53:43;;;;;;;15.90;6.68;;;;;;;16.26;100.00;94611.72;5081031;28;20048;-69
2021/09/18 03:56:10;;;;;;;13.90;6.07;;;;;;;16.43;100.00;94611.34;5075256;28;20044;-69
2021/09/18 03:58:37;;;;;;;12.35;5.70;;;;;;;16.31;100.00;94608.25;5076737;28;20080;-69
2021/09/18 04:01:04;;;;;;;14.25;5.57;;;;;;;16.43;100.00;94621.84;5078004;28;20513;-68
2021/09/18 04:03:31;;;;;;;8.27;4.95;;;;;;;16.52;100.00;94620.22;5079778;28;20048;-69
2021/09/18 04:05:58;;;;;;;13.85;6.53;;;;;;;16.63;100.00;94626.19;5073829;28;20067;-69
2021/09/18 04:08:25;;;;;;;15.43;5.30;;;;;;;16.68;100.00;94628.00;5077957;28;20036;-70
2021/09/18 04:10:52;;;;;;;11.75;6.00;;;;;;;16.65;100.00;94628.53;5079742;28;20047;-70
2021/09/18 04:13:19;;;;;;;10.25;5.20;;;;;;;16.43;100.00;94632.38;5072374;28;20036;-70
2021/09/18 04:15:46;;;;;;;14.02;5.18;;;;;;;16.29;100.00;94631.41;5076509;28;20063;-70
2021/09/18 04:18:13;;;;;;;14.10;6.15;;;;;;;16.21;100.00;94633.53;5079493;28;20043;-70
2021/09/18 04:20:40;;;;;;;10.32;5.00;;;;;;;16.22;100.00;94632.50;5071934;28;20047;-70
2021/09/18 04:23:06;;;;;;;10.77;5.75;;;;;;;16.32;100.00;94620.34;5077872;28;20056;-70
2021/09/18 04:25:33;;;;;;;14.32;6.05;;;;;;;16.33;100.00;94632.41;5078923;28;20032;-70
2021/09/18 04:28:00;;;;;;;11.32;6.28;;;;;;;16.41;100.00;94623.97;5074629;28;20066;-71
2021/09/18 04:30:27;;;;;;;11.65;5.50;;;;;;;16.53;100.00;94632.31;5072178;28;20101;-70
2021/09/18 04:32:54;;;;;;;11.13;5.13;;;;;;;16.69;100.00;94645.34;5076402;28;20040;-70
2021/09/18 04:35:20;;;;;;;8.38;5.43;;;;;;;16.71;100.00;94651.91;5080584;28;20040;-69
2021/09/18 04:37:47;;;;;;;8.45;5.20;;;;;;;16.76;100.00;94648.44;5074363;28;20048;-70
2021/09/18 04:40:14;;;;;;;10.20;5.45;;;;;;;16.80;100.00;94652.13;5076708;28;20048;-70
2021/09/18 04:42:41;;;;;;;10.25;5.75;;;;;;;16.81;100.00;94661.56;5078097;28;20032;-71
2021/09/18 04:45:08;;;;;;;13.30;6.00;;;;;;;16.59;100.00;94654.88;5078976;28;20394;-71
2021/09/18 04:47:35;;;;;;;11.20;6.80;;;;;;;16.57;100.00;94672.75;5075470;28;20033;-72
2021/09/18 04:50:03;;;;;;;15.25;5.47;;;;;;;16.57;100.00;94675.38;5075230;28;20407;-71
2021/09/18 04:52:30;;;;;;;17.08;7.82;;;;;;;16.58;100.00;94703.25;5075068;28;22146;-67
2021/09/18 04:54:58;;;;;;;14.30;6.22;;;;;;;16.52;100.00;94720.09;5071584;28;20045;-67
2021/09/18 04:57:24;;;;;;;10.18;6.47;;;;;;;16.49;100.00;94741.66;5073598;28;20048;-67
2021/09/18 04:59:51;;;;;;;14.52;6.55;;;;;;;16.46;100.00;94763.25;5080412;28;20044;-67
2021/09/18 05:02:18;;;;;;;13.60;6.00;;;;;;;16.44;100.00;94778.50;5082380;28;20043;-67
2021/09/18 05:04:45;;;;;;;14.35;7.43;;;;;;;16.29;100.00;94741.75;5074493;28;20575;-68
2021/09/18 05:07:12;;;;;;;12.32;7.38;;;;;;;16.31;100.00;94748.31;5070075;28;20051;-68
2021/09/18 05:09:39;;;;;;;18.33;6.60;;;;;;;16.35;100.00;94725.72;5081259;28;20036;-67
2021/09/18 05:12:06;;;;;;;14.68;6.93;;;;;;;16.38;100.00;94698.09;5073301;28;20048;-68
2021/09/18 05:14:33;;;;;;;16.05;6.85;;;;;;;16.36;100.00;94700.22;5074341;28;20041;-67
2021/09/18 05:17:00;;;;;;;17.23;7.35;;;;;;;16.23;100.00;94686.59;5070144;28;20494;-68
2021/09/18 05:19:26;;;;;;;17.27;7.65;;;;;;;16.36;100.00;94684.44;5073527;28;20032;-69
2021/09/18 05:21:53;;;;;;;13.52;7.57;;;;;;;16.16;100.00;94656.41;5075472;28;20040;-69
2021/09/18 05:24:20;;;;;;;14.38;8.35;;;;;;;16.20;100.00;94666.09;5075159;28;20060;-68
2021/09/18 05:26:47;;;;;;;11.63;6.18;;;;;;;16.37;100.00;94688.66;5078270;28;20054;-69
2021/09/18 05:29:14;;;;;;;13.05;6.80;;;;;;;16.47;100.00;94685.94;5066454;28;20046;-69
2021/09/18 05:31:41;;;;;;;12.57;6.50;;;;;;;16.55;100.00;94692.50;5082869;28;20051;-70
2021/09/18 05:34:09;;;;;;;17.27;7.97;;;;;;;16.76;100.00;94698.41;5073724;28;20119;-69
2021/09/18 05:36:36;;;;;;;18.48;7.97;;;;;;;16.90;100.00;94709.94;5079667;28;20068;-69
2021/09/18 05:39:03;;;;;;;14.25;7.57;;;;;;;17.08;100.00;94715.59;5076772;28;20051;-69
2021/09/18 05:41:30;;;;;;;16.25;8.23;;;;;;;17.07;100.00;94695.59;5072212;28;20051;-69
2021/09/18 05:43:57;;;;;;;15.73;6.90;;;;;;;17.20;100.00;94710.78;5071746;28;20473;-70
2021/09/18 05:46:23;;;;;;;12.52;7.15;;;;;;;17.31;100.00;94714.91;5077371;28;20032;-70
2021/09/18 05:48:51;;;;;;;18.08;6.45;;;;;;;17.36;100.00;94691.16;5073353;28;20040;-71
2021/09/18 05:51:17;;;;;;;12.75;6.72;;;;;;;17.51;100.00;94692.09;5072100;28;20525;-70
2021/09/18 05:53:44;;;;;;;19.65;8.18;;;;;;;17.58;100.00;94697.81;5075678;28;20044;-70
2021/09/18 05:56:11;;;;;;;18.77;8.65;;;;;;;17.69;100.00;94694.00;5070756;28;20403;-70
2021/09/18 05:58:38;;;;;;;13.80;8.52;;;;;;;17.73;100.00;94700.28;5074377;28;20036;-70
2021/09/18 06:01:04;;;;;;;16.73;7.93;;;;;;;17.73;100.00;94689.75;5074518;28;20043;-70
2021/09/18 06:03:31;;;;;;;17.45;8.60;;;;;;;17.87;100.00;94699.69;5076963;28;20119;-71
2021/09/18 06:05:58;;;;;;;15.75;8.48;;;;;;;17.86;100.00;94698.91;5075610;28;20516;-73
2021/09/18 06:08:25;;;;;;;11.32;6.45;;;;;;;17.74;100.00;94701.88;5078364;28;20531;-71
2021/09/18 06:10:52;;;;;;;14.75;6.30;;;;;;;17.81;100.00;94711.28;5079103;28;20047;-71
2021/09/18 06:13:19;;;;;;;13.95;5.93;;;;;;;17.87;100.00;94712.84;5077209;28;20050;-72
2021/09/18 06:15:46;;;;;;;16.15;5.15;;;;;;;17.95;100.00;94704.31;5078556;28;20505;-71
2021/09/18 06:18:12;;;;;;;8.48;4.95;;;;;;;17.98;100.00;94706.41;5073807;28;20032;-71
2021/09/18 06:20:40;;;;;;;11.30;5.28;;;;;;;18.03;100.00;94710.84;5079156;28;20120;-71
2021/09/18 06:23:07;;;;;;;11.13;5.20;;;;;;;17.99;100.00;94702.72;5078771;28;20055;-71
2021/09/18 06:25:34;;;;;;;14.77;5.97;;;;;;;17.96;100.00;94698.00;5074538;28;20586;-72
2021/09/18 06:28:01;;;;;;;12.00;6.00;;;;;;;17.90;100.00;94707.03;5066644;28;20055;-72
2021/09/18 06:30:28;;;;;;;9.65;5.85;;;;;;;17.99;100.00;94718.53;5069584;28;20036;-72
2021/09/18 06:32:55;;;;;;;16.75;6.15;;;;;;;18.18;100.00;94717.78;5074239;28;20044;-71
2021/09/18 06:35:21;;;;;;;10.57;6.95;;;;;;;18.20;100.00;94728.81;5080766;28;20036;-71
2021/09/18 06:37:48;;;;;;;9.30;5.70;;;;;;;18.25;100.00;94726.13;5081893;28;20048;-71
2021/09/18 06:40:20;;;;;;;13.20;6.00;;;;;;;18.30;100.00;94739.25;5076680;28;20043;-71
2021/09/18 06:42:47;;;;;;;13.18;6.40;;;;;;;18.29;100.00;94732.41;5075407;28;20062;-72
2021/09/18 06:45:15;;;;;;;15.30;6.22;;;;;;;18.40;100.00;94733.88;5075223;28;20478;-71
2021/09/18 06:47:42;;;;;;;13.98;6.95;;;;;;;18.44;100.00;94719.06;5074280;28;20036;-72
2021/09/18 06:50:10;;;;;;;12.75;6.50;;;;;;;18.41;100.00;94713.56;5070979;28;20047;-71
2021/09/18 06:52:37;;;;;;;15.57;7.45;;;;;;;18.47;100.00;94713.19;5077734;28;20072;-72
2021/09/18 06:55:06;;;;;;;12.60;7.47;;;;;;;18.62;100.00;94724.63;5070841;28;20032;-71
2021/09/18 06:57:35;;;;;;;9.18;5.90;;;;;;;18.72;100.00;94729.75;5073322;28;20044;-71
2021/09/18 07:00:03;;;;;;;11.05;6.10;;;;;;;18.77;100.00;94732.34;5074381;28;20504;-71
2021/09/18 07:02:30;;;;;;;12.90;6.28;;;;;;;18.84;100.00;94730.16;5071139;28;20047;-71
2021/09/18 07:04:57;;;;;;;10.25;4.78;;;;;;;18.90;100.00;94736.16;5063519;28;20068;-72
2021/09/18 07:07:28;;;;;;;7.55;5.40;;;;;;;18.99;100.00;94729.16;5073779;28;20046;-72
2021/09/18 07:09:56;;;;;;;10.90;5.53;;;;;;;19.00;100.00;94732.59;5076167;28;20437;-72
2021/09/18 07:12:22;;;;;;;13.23;5.50;;;;;;;18.99;100.00;94733.66;5077680;28;20052;-71
2021/09/18 07:14:49;;;;;;;13.57;6.07;;;;;;;19.08;100.00;94737.22;5080879;28;20052;-71
2021/09/18 07:17:16;;;;;;;16.63;7.15;;;;;;;19.05;100.00;94743.06;5080018;28;20055;-71
2021/09/18 07:19:43;;;;;;;10.27;6.35;;;;;;;18.97;100.00;94747.13;5062654;28;20120;-71
2021/09/18 07:22:10;;;;;;;11.68;6.95;;;;;;;18.94;100.00;94746.91;5072312;28;20048;-67
2021/09/18 07:24:38;;;;;;;10.88;6.63;;;;;;;18.99;100.00;94760.06;5081833;28;20059;-67
2021/09/18 07:27:05;;;;;;;11.60;7.22;;;;;;;19.13;100.00;94755.63;5080677;28;20428;-68
2021/09/18 07:29:32;;;;;;;14.07;6.35;;;;;;;19.19;100.00;94745.78;5073898;28;20035;-68
2021/09/18 07:32:03;;;;;;;11.07;6.18;;;;;;;19.54;100.00;94754.22;5080828;28;20052;-71
2021/09/18 07:34:29;;;;;;;10.77;6.07;;;;;;;19.71;100.00;94745.75;5081438;28;20102;-71
2021/09/18 07:36:56;;;;;;;11.30;6.63;;;;;;;19.90;100.00;94738.56;5080171;28;20045;-71
2021/09/18 07:39:23;;;;;;;21.23;10.20;;;;;;;20.29;100.00;94742.59;5070439;28;20032;-71
2021/09/18 07:41:50;;;;;;;30.92;19.27;;;;;;;20.57;96.47;94737.31;5083744;28;20529;-72
2021/09/18 07:44:17;;;;;;;10.52;6.45;;;;;;;20.48;92.60;94733.78;5073309;28;20093;-71
2021/09/18 07:46:43;;;;;;;14.50;6.90;;;;;;;20.70;96.47;94752.41;5077544;28;20051;-72
2021/09/18 07:49:11;;;;;;;12.90;7.15;;;;;;;20.57;93.58;94734.66;5085059;28;20044;-71
2021/09/18 07:51:38;;;;;;;10.82;5.57;;;;;;;20.50;93.63;94737.69;5074781;28;20075;-72
2021/09/18 07:54:05;;;;;;;11.15;7.80;;;;;;;20.46;94.79;94754.47;5074437;28;20051;-72
2021/09/18 07:56:32;;;;;;;20.73;12.52;;;;;;;20.40;94.57;94759.84;5079526;28;20056;-72
2021/09/18 07:58:58;;;;;;;16.55;10.07;;;;;;;20.26;95.29;94756.44;5078218;28;20416;-72
2021/09/18 08:01:28;;;;;;;13.65;7.68;;;;;;;20.20;95.29;94749.66;5108530;27;20052;-72
2021/09/18 08:03:59;;;;;;;13.50;7.35;;;;;;;20.08;95.88;94746.69;5073681;28;20043;-72
2021/09/18 08:06:29;;;;;;;15.35;7.18;;;;;;;19.99;96.19;94731.53;5081917;28;20445;-72
2021/09/18 08:08:56;;;;;;;15.50;8.18;;;;;;;19.99;96.50;94734.19;5073296;28;20032;-72
2021/09/18 08:11:24;;;;;;;11.52;6.38;;;;;;;19.85;97.89;94722.81;5075512;28;20064;-71
2021/09/18 08:13:52;;;;;;;12.07;6.95;;;;;;;19.66;100.00;94731.56;5073720;28;20040;-74
2021/09/18 08:16:21;;;;;;;14.10;7.93;;;;;;;19.70;100.00;94737.03;5074842;28;20132;-73
2021/09/18 08:18:48;;;;;;;10.35;6.85;;;;;;;19.74;100.00;94763.69;5070933;28;20040;-72
2021/09/18 08:21:15;;;;;;;9.30;5.45;;;;;;;19.56;100.00;94758.13;5062452;28;20040;-72
2021/09/18 08:23:42;;;;;;;20.55;8.15;;;;;;;19.57;100.00;94749.16;5066347;28;20048;-72
2021/09/18 08:26:10;;;;;;;11.10;6.05;;;;;;;19.55;100.00;94746.00;5069559;28;20047;-71
2021/09/18 08:28:37;;;;;;;13.45;5.97;;;;;;;19.52;100.00;94751.88;5073035;28;20537;-71
2021/09/18 08:31:04;;;;;;;8.70;4.50;;;;;;;19.34;100.00;94755.31;5078599;28;20055;-72
2021/09/18 08:33:31;;;;;;;9.23;4.65;;;;;;;19.33;100.00;94740.56;5083516;28;21852;-71
2021/09/18 08:35:58;;;;;;;7.32;4.20;;;;;;;19.43;100.00;94758.88;5078101;28;20047;-71
2021/09/18 08:38:26;;;;;;;7.55;4.80;;;;;;;19.28;100.00;94741.41;5075202;28;20036;-71
2021/09/18 08:40:54;;;;;;;9.73;5.30;;;;;;;19.51;100.00;94755.56;5074610;28;20429;-71
2021/09/18 08:43:21;;;;;;;11.52;5.75;;;;;;;19.72;100.00;94747.31;5074709;28;20048;-71
2021/09/18 08:45:48;;;;;;;10.18;5.85;;;;;;;19.84;100.00;94752.94;5075722;28;20059;-71
2021/09/18 08:48:16;;;;;;;15.52;6.90;;;;;;;20.01;98.73;94753.16;5072010;28;20044;-71
2021/09/18 08:50:44;;;;;;;7.85;5.43;;;;;;;20.17;95.46;94751.03;5069024;28;22005;-70
2021/09/18 08:53:11;;;;;;;8.20;5.50;;;;;;;20.02;92.41;94752.09;5067233;28;20070;-70
2021/09/18 08:55:38;;;;;;;8.05;5.50;;;;;;;20.05;93.61;94759.44;5072696;28;20054;-70
2021/09/18 08:58:05;;;;;;;8.77;5.78;;;;;;;20.14;95.11;94750.84;5065664;28;20425;-70
2021/09/18 09:00:32;;;;;;;12.25;6.63;;;;;;;20.23;96.66;94749.06;5065322;28;20037;-70
2021/09/18 09:03:03;;;;;;;15.38;6.82;;;;;;;20.19;94.46;94742.81;5069584;28;20534;-71
2021/09/18 09:05:34;;;;;;;13.55;6.35;;;;;;;20.18;95.71;94733.28;5072622;28;20048;-70
2021/09/18 09:08:10;;;;;;;9.60;6.30;;;;;;;20.14;98.41;94761.41;5073067;28;20449;-71
2021/09/18 09:10:39;;;;;;;10.20;6.97;;;;;;;19.85;100.00;94751.88;5086505;28;20040;-71
2021/09/18 09:13:07;;;;;;;14.70;6.65;;;;;;;19.62;100.00;94745.63;5084478;28;20106;-70
2021/09/18 09:15:35;;;;;;;11.75;5.95;;;;;;;19.56;100.00;94754.72;5076689;28;20049;-70
2021/09/18 09:18:20;;;;;;;12.15;6.20;;;;;;;19.46;100.00;94768.84;5064574;28;20117;-70
2021/09/18 09:21:22;;;;;;;8.48;5.38;;;;;;;19.03;100.00;94771.59;5066373;28;20543;-70
2021/09/18 09:24:07;;;;;;;12.48;7.03;;;;;;;18.56;100.00;94767.97;5079477;28;20063;-70
2021/09/18 09:26:35;;;;;;;13.38;6.47;;;;;;;18.38;100.00;94778.16;5067779;27;20052;-69
2021/09/18 09:29:03;;;;;;;11.23;6.90;;;;;;;18.12;100.00;94765.28;5063531;28;20094;-70
2021/09/18 09:31:34;;;;;;;13.98;7.00;;;;;;;17.93;100.00;94772.31;5066437;28;20425;-69
2021/09/18 09:34:03;;;;;;;12.82;7.30;;;;;;;17.82;100.00;94755.00;5063102;28;20041;-70
2021/09/18 09:36:36;;;;;;;9.68;6.00;;;;;;;17.63;100.00;94758.34;5067123;28;20124;-70
2021/09/18 09:39:05;;;;;;;13.10;7.38;;;;;;;17.46;100.00;94760.59;5065710;28;20048;-70
2021/09/18 09:41:33;;;;;;;11.77;6.65;;;;;;;17.54;100.00;94760.00;5072117;28;20052;-70
2021/09/18 09:44:09;;;;;;;15.05;8.05;;;;;;;17.47;100.00;94754.28;5074169;28;20095;-70
2021/09/18 09:46:36;;;;;;;18.63;7.68;;;;;;;17.44;100.00;94754.81;5081055;28;20035;-70
2021/09/18 09:49:05;;;;;;;14.65;8.30;;;;;;;17.45;100.00;94756.38;5081396;28;20523;-70
2021/09/18 09:51:32;;;;;;;18.40;10.27;;;;;;;17.55;100.00;94764.19;5073055;28;20041;-70
2021/09/18 09:54:14;;;;;;;17.13;7.90;;;;;;;17.56;100.00;94763.16;5076925;28;20056;-69
2021/09/18 09:56:41;;;;;;;14.57;7.80;;;;;;;17.46;100.00;94752.69;5079827;28;20497;-69
2021/09/18 09:59:08;;;;;;;12.63;7.40;;;;;;;17.46;100.00;94764.00;5068053;28;20536;-70
2021/09/18 10:01:34;;;;;;;13.55;7.57;;;;;;;17.39;100.00;94774.06;5074581;28;20523;-70
2021/09/18 10:04:03;;;;;;;13.40;7.53;;;;;;;17.49;100.00;94762.69;5070669;28;20127;-70
2021/09/18 10:06:31;;;;;;;14.95;7.80;;;;;;;17.56;100.00;94778.94;5076267;28;20082;-71
2021/09/18 10:08:58;;;;;;;13.15;8.15;;;;;;;17.53;100.00;94763.69;5077550;28;20057;-71
2021/09/18 10:11:30;;;;;;;12.68;8.85;;;;;;;17.70;100.00;94769.34;5071997;28;20053;-70
2021/09/18 10:13:59;;;;;;;13.38;7.78;;;;;;;17.85;100.00;94767.63;5072285;28;20045;-71
2021/09/18 10:16:26;;;;;;;12.88;7.22;;;;;;;17.89;100.00;94777.34;5075807;28;20047;-71
2021/09/18 10:18:58;;;;;;;10.32;6.15;;;;;;;17.98;100.00;94792.56;5079457;28;20047;-70
2021/09/18 10:24:12;;;;;;;10.77;5.95;;;;;;;17.84;100.00;94813.47;5076554;28;20086;-71
2021/09/18 10:26:39;;;;;;;13.68;6.75;;;;;;;17.71;100.00;94823.56;5076252;28;20040;-70
2021/09/18 10:29:05;;;;;;;11.60;6.55;;;;;;;17.66;100.00;94820.97;5068499;28;20045;-71
2021/09/18 10:31:32;;;;;;;10.40;4.78;;;;;;;17.53;100.00;94832.16;5076432;28;20047;-71
2021/09/18 10:34:20;;;;;;;9.57;6.28;;;;;;;17.26;100.00;94857.06;5079010;28;20048;-69
2021/09/18 10:36:48;;;;;;;10.57;5.68;;;;;;;16.94;100.00;94842.50;5079243;28;20583;-68
2021/09/18 10:39:19;;;;;;;10.00;5.82;;;;;;;16.73;100.00;94872.53;5061769;28;20041;-69
2021/09/18 10:41:48;;;;;;;11.18;6.75;;;;;;;16.46;100.00;94868.41;5063629;28;20048;-69
2021/09/18 10:44:17;;;;;;;10.32;5.30;;;;;;;16.42;100.00;94872.59;5064578;28;20046;-68
2021/09/18 10:47:02;;;;;;;14.60;6.10;;;;;;;16.00;100.00;94897.34;5067224;28;20121;-68
2021/09/18 10:49:35;;;;;;;10.13;6.30;;;;;;;15.91;100.00;94898.94;5081361;28;20036;-69
2021/09/18 10:52:17;;;;;;;11.85;6.80;;;;;;;15.84;100.00;94907.06;5089438;28;20040;-69
2021/09/18 10:54:59;;;;;;;12.25;5.45;;;;;;;15.80;100.00;94893.66;5087155;28;20101;-69
2021/09/18 10:57:27;;;;;;;13.20;6.22;;;;;;;15.72;100.00;94875.78;5077172;28;20048;-69
2021/09/18 10:59:54;;;;;;;10.73;5.95;;;;;;;15.53;100.00;94861.59;5081816;28;20040;-69
2021/09/18 11:02:30;;;;;;;13.65;6.50;;;;;;;15.58;100.00;94861.59;5079677;28;20036;-69
2021/09/18 11:04:58;;;;;;;11.75;6.00;;;;;;;15.56;100.00;94845.34;5077466;28;20106;-68
2021/09/18 11:07:47;;;;;;;10.88;5.40;;;;;;;15.62;100.00;94839.03;5075336;28;20573;-68
2021/09/18 11:10:36;;;;;;;10.27;5.43;;;;;;;15.56;100.00;94840.84;5065524;28;20588;-70
2021/09/18 11:13:06;;;;;;;9.75;5.00;;;;;;;15.58;100.00;94843.22;5069834;28;20129;-68
2021/09/18 11:15:46;;;;;;;13.05;6.40;;;;;;;15.61;100.00;94837.44;5072721;28;20125;-69
2021/09/18 11:18:15;;;;;;;10.23;5.32;;;;;;;15.66;100.00;94835.63;5066907;28;20524;-69
2021/09/18 11:20:43;;;;;;;11.15;6.07;;;;;;;15.73;100.00;94834.56;5067541;28;20037;-69
2021/09/18 11:23:10;;;;;;;15.93;8.00;;;;;;;15.80;100.00;94812.25;5072599;28;20390;-69
2021/09/18 11:25:46;;;;;;;12.48;5.75;;;;;;;15.79;100.00;94813.31;5067179;28;20514;-69
2021/09/18 11:28:14;;;;;;;11.57;7.15;;;;;;;15.84;100.00;94809.91;5067860;28;20059;-70